createdAt,value
2019-04-26T00:00:42.802Z,91.70
2019-04-26T00:03:14.190Z,91.80
2019-04-26T00:05:43.106Z,91.90
2019-04-26T00:08:12.146Z,91.80
2019-04-26T00:10:58.771Z,91.80
2019-04-26T00:13:34.719Z,91.80
2019-04-26T00:16:21.827Z,91.80
2019-04-26T00:18:50.656Z,91.80
2019-04-26T00:21:19.613Z,91.50
2019-04-26T00:23:49.168Z,91.30
2019-04-26T00:26:18.260Z,91.50
2019-04-26T00:28:46.708Z,91.90
2019-04-26T00:31:15.262Z,92.30
2019-04-26T00:33:43.698Z,92.70
2019-04-26T00:36:12.369Z,92.80
2019-04-26T00:38:42.634Z,93.00
2019-04-26T00:41:12.656Z,93.00
2019-04-26T00:43:41.879Z,93.10
2019-04-26T00:46:13.280Z,93.20
2019-04-26T00:48:43.494Z,93.30
2019-04-26T00:51:12.775Z,93.30
2019-04-26T00:53:45.514Z,93.30
2019-04-26T00:56:15.970Z,93.20
2019-04-26T00:58:44.669Z,93.10
2019-04-26T01:01:15.094Z,93.10
2019-04-26T01:03:44.955Z,93.00
2019-04-26T01:06:15.998Z,93.00
2019-04-26T01:08:45.732Z,92.90
2019-04-26T01:11:16.175Z,93.00
2019-04-26T01:13:44.435Z,93.10
2019-04-26T01:16:12.884Z,93.20
2019-04-26T01:18:43.194Z,93.30
2019-04-26T01:21:14.260Z,93.60
2019-04-26T01:23:44.971Z,93.90
2019-04-26T01:26:28.681Z,94.20
2019-04-26T01:29:00.244Z,94.50
2019-04-26T01:31:31.019Z,94.90
2019-04-26T01:33:59.673Z,95.10
2019-04-26T01:36:31.231Z,95.30
2019-04-26T01:39:07.440Z,95.40
2019-04-26T01:41:39.086Z,95.90
2019-04-26T01:44:24.769Z,95.70
2019-04-26T01:46:54.446Z,95.80
2019-04-26T01:49:24.239Z,95.90
2019-04-26T01:52:04.477Z,96.10
2019-04-26T01:54:36.050Z,96.10
2019-04-26T01:57:05.974Z,96.30
2019-04-26T01:59:37.930Z,96.50
2019-04-26T02:02:08.105Z,96.70
2019-04-26T02:04:38.935Z,96.70
2019-04-26T02:07:07.687Z,96.80
2019-04-26T02:09:36.489Z,96.70
2019-04-26T02:12:05.791Z,96.70
2019-04-26T02:14:34.300Z,96.80
2019-04-26T02:17:03.349Z,97.00
2019-04-26T02:19:33.767Z,97.10
2019-04-26T02:22:23.616Z,97.30
2019-04-26T02:24:53.286Z,97.40
2019-04-26T02:27:24.752Z,97.40
2019-04-26T02:29:53.640Z,97.30
2019-04-26T02:32:22.328Z,97.10
2019-04-26T02:34:50.858Z,97.20
2019-04-26T02:37:19.374Z,97.60
2019-04-26T02:39:49.123Z,98.00
2019-04-26T02:42:30.994Z,98.00
2019-04-26T02:45:22.220Z,97.50
2019-04-26T02:48:11.571Z,98.10
2019-04-26T02:50:50.683Z,98.50
2019-04-26T02:53:35.363Z,98.70
2019-04-26T02:56:16.266Z,98.90
2019-04-26T03:01:36.034Z,99.00
2019-04-26T03:04:04.359Z,99.10
2019-04-26T03:06:34.986Z,99.10
2019-04-26T03:09:07.697Z,99.20
2019-04-26T03:11:39.300Z,99.70
2019-04-26T03:14:13.219Z,99.50
2019-04-26T03:17:02.438Z,99.60
2019-04-26T03:19:44.138Z,99.70
2019-04-26T03:22:27.358Z,99.70
2019-04-26T03:25:07.818Z,99.80
2019-04-26T03:28:05.171Z,99.80
2019-04-26T03:30:52.624Z,99.80
2019-04-26T03:33:53.536Z,99.80
2019-04-26T03:36:47.984Z,99.90
2019-04-26T03:39:25.271Z,99.90
2019-04-26T03:42:01.490Z,99.90
2019-04-26T03:44:37.164Z,99.90
2019-04-26T03:47:09.503Z,99.90
2019-04-26T03:49:47.236Z,99.90
2019-04-26T03:52:37.439Z,99.90
2019-04-26T03:55:28.671Z,99.90
2019-04-26T03:58:07.994Z,99.90
2019-04-26T04:00:58.580Z,99.90
2019-04-26T04:03:47.768Z,99.90
2019-04-26T04:06:21.356Z,99.90
2019-04-26T04:08:55.146Z,99.90
2019-04-26T04:11:40.918Z,99.90
2019-04-26T04:14:13.379Z,99.90
2019-04-26T04:16:50.277Z,99.90
2019-04-26T04:19:37.262Z,99.90
2019-04-26T04:22:17.967Z,99.90
2019-04-26T04:24:55.714Z,99.90
2019-04-26T04:27:33.111Z,99.90
2019-04-26T04:30:13.588Z,99.90
2019-04-26T04:32:52.125Z,99.90
2019-04-26T04:35:24.249Z,99.90
2019-04-26T04:38:08.754Z,99.90
2019-04-26T04:40:34.608Z,99.90
2019-04-26T04:43:20.046Z,99.90
2019-04-26T04:46:07.711Z,99.90
2019-04-26T04:48:52.717Z,99.90
2019-04-26T04:51:26.965Z,99.90
2019-04-26T04:54:10.054Z,99.90
2019-04-26T04:56:55.046Z,99.90
2019-04-26T04:59:31.967Z,99.90
2019-04-26T05:02:17.132Z,99.90
2019-04-26T05:05:05.804Z,99.90
2019-04-26T05:08:06.287Z,99.90
2019-04-26T05:10:33.099Z,99.90
2019-04-26T05:13:22.005Z,99.90
2019-04-26T05:16:26.623Z,99.90
2019-04-26T05:19:05.970Z,99.90
2019-04-26T05:21:53.092Z,99.90
2019-04-26T05:24:45.670Z,99.90
2019-04-26T05:27:39.133Z,99.90
2019-04-26T05:30:27.320Z,99.90
2019-04-26T05:33:07.152Z,99.90
2019-04-26T05:36:09.302Z,99.90
2019-04-26T05:38:40.834Z,99.90
2019-04-26T05:41:12.462Z,99.90
2019-04-26T05:43:51.836Z,99.90
2019-04-26T05:46:33.765Z,99.90
2019-04-26T05:49:23.291Z,99.90
2019-04-26T05:52:15.892Z,99.90
2019-04-26T05:55:09.673Z,99.90
2019-04-26T05:58:02.909Z,99.90
2019-04-26T06:00:44.320Z,99.90
2019-04-26T06:03:31.640Z,99.90
2019-04-26T06:06:33.710Z,99.90
2019-04-26T06:09:46.947Z,99.90
2019-04-26T06:12:25.871Z,99.90
2019-04-26T06:15:04.018Z,99.90
2019-04-26T06:17:48.889Z,99.90
2019-04-26T06:20:32.386Z,99.90
2019-04-26T06:23:13.039Z,99.90
2019-04-26T06:25:57.977Z,99.90
2019-04-26T06:28:43.514Z,99.90
2019-04-26T06:31:30.116Z,99.90
2019-04-26T06:34:04.227Z,99.90
2019-04-26T06:36:37.400Z,99.90
2019-04-26T06:39:16.587Z,99.90
2019-04-26T06:42:09.181Z,99.90
2019-04-26T06:44:51.649Z,99.90
2019-04-26T06:47:27.494Z,99.80
2019-04-26T06:50:15.101Z,99.60
2019-04-26T06:52:52.343Z,99.70
2019-04-26T06:55:26.722Z,99.80
2019-04-26T06:58:25.264Z,99.30
2019-04-26T07:01:08.040Z,99.20
2019-04-26T07:03:51.491Z,99.20
2019-04-26T07:06:35.231Z,99.10
2019-04-26T07:09:08.421Z,99.20
2019-04-26T07:11:53.764Z,98.90
2019-04-26T07:14:46.232Z,98.70
2019-04-26T07:17:35.558Z,98.50
2019-04-26T07:20:26.907Z,98.30
2019-04-26T07:23:33.103Z,98.20
2019-04-26T07:26:29.007Z,98.20
2019-04-26T07:29:16.642Z,98.50
2019-04-26T07:31:48.266Z,98.50
2019-04-26T07:34:38.988Z,98.40
2019-04-26T07:37:40.721Z,98.20
2019-04-26T07:40:30.683Z,98.10
2019-04-26T07:43:36.985Z,98.00
2019-04-26T07:46:08.543Z,98.30
2019-04-26T07:48:56.699Z,98.00
2019-04-26T07:51:55.753Z,98.00
2019-04-26T07:55:04.483Z,98.30
2019-04-26T07:57:55.723Z,98.40
2019-04-26T08:00:28.878Z,97.80
2019-04-26T08:03:05.498Z,98.00
2019-04-26T08:05:41.819Z,97.40
2019-04-26T08:08:14.922Z,97.40
2019-04-26T08:10:55.601Z,97.30
2019-04-26T08:13:26.691Z,97.40
2019-04-26T08:16:04.899Z,97.20
2019-04-26T08:18:37.554Z,96.80
2019-04-26T08:21:15.183Z,96.80
2019-04-26T08:23:45.578Z,96.70
2019-04-26T08:26:17.176Z,96.90
2019-04-26T08:28:49.121Z,97.60
2019-04-26T08:31:23.186Z,97.50
2019-04-26T08:33:57.185Z,98.10
2019-04-26T08:36:31.086Z,98.20
2019-04-26T08:39:01.355Z,98.90
2019-04-26T08:41:30.369Z,99.20
2019-04-26T08:44:03.614Z,99.80
2019-04-26T08:46:38.387Z,99.90
2019-04-26T08:49:13.394Z,99.90
2019-04-26T08:51:43.836Z,99.90
2019-04-26T08:54:14.768Z,99.90
2019-04-26T08:57:04.974Z,99.90
2019-04-26T08:59:36.487Z,99.90
2019-04-26T09:02:25.094Z,99.90
2019-04-26T09:05:09.973Z,99.90
2019-04-26T09:07:41.598Z,99.90
2019-04-26T09:10:13.182Z,99.90
2019-04-26T09:12:44.858Z,99.90
2019-04-26T09:15:15.137Z,99.90
2019-04-26T09:17:43.688Z,99.90
2019-04-26T09:20:12.468Z,99.90
2019-04-26T09:23:03.961Z,99.90
2019-04-26T09:25:34.630Z,99.90
2019-04-26T09:28:18.723Z,99.90
2019-04-26T09:30:48.865Z,99.90
2019-04-26T09:33:21.735Z,99.90
2019-04-26T09:35:50.361Z,99.90
2019-04-26T09:38:18.833Z,99.90
2019-04-26T09:40:47.282Z,99.90
2019-04-26T09:43:29.023Z,99.90
2019-04-26T09:46:17.141Z,99.90
2019-04-26T09:48:47.242Z,99.90
2019-04-26T09:51:15.794Z,99.90
2019-04-26T09:53:44.796Z,99.90
2019-04-26T09:56:13.419Z,99.90
2019-04-26T09:58:41.893Z,99.90
2019-04-26T10:01:10.470Z,99.90
2019-04-26T10:03:38.931Z,99.90
2019-04-26T10:06:08.287Z,99.90
2019-04-26T10:08:36.838Z,99.90
2019-04-26T10:11:09.636Z,99.90
2019-04-26T10:13:38.978Z,99.90
2019-04-26T10:16:27.268Z,99.90
2019-04-26T10:18:59.938Z,99.90
2019-04-26T10:21:28.447Z,99.90
2019-04-26T10:23:56.907Z,99.90
2019-04-26T10:26:28.063Z,99.90
2019-04-26T10:28:55.532Z,99.90
2019-04-26T10:31:24.002Z,99.90
2019-04-26T10:33:52.610Z,99.90
2019-04-26T10:36:21.182Z,99.90
2019-04-26T10:38:49.611Z,99.90
2019-04-26T10:41:18.082Z,99.90
2019-04-26T10:43:46.606Z,99.90
2019-04-26T10:46:15.293Z,99.90
2019-04-26T10:48:45.521Z,99.90
2019-04-26T10:51:15.566Z,99.90
2019-04-26T10:54:01.601Z,99.90
2019-04-26T10:56:35.002Z,99.90
2019-04-26T10:59:06.142Z,99.90
2019-04-26T11:01:36.238Z,99.90
2019-04-26T11:04:04.934Z,99.90
2019-04-26T11:06:33.462Z,99.90
2019-04-26T11:09:01.926Z,99.90
2019-04-26T11:11:30.374Z,99.90
2019-04-26T11:13:58.831Z,99.90
2019-04-26T11:16:27.277Z,99.90
2019-04-26T11:18:57.200Z,99.90
2019-04-26T11:21:25.994Z,99.90
2019-04-26T11:23:54.458Z,99.90
2019-04-26T11:26:22.926Z,99.90
2019-04-26T11:28:55.537Z,99.90
2019-04-26T11:31:23.288Z,99.90
2019-04-26T11:33:51.817Z,99.90
2019-04-26T11:36:20.300Z,99.90
2019-04-26T11:38:48.839Z,99.90
2019-04-26T11:41:17.359Z,99.90
2019-04-26T11:43:49.053Z,99.90
2019-04-26T11:46:16.065Z,99.90
2019-04-26T11:48:44.511Z,99.90
2019-04-26T11:51:12.990Z,99.90
2019-04-26T11:53:44.747Z,99.90
2019-04-26T11:56:11.689Z,99.90
2019-04-26T11:58:40.327Z,99.90
2019-04-26T12:01:10.401Z,99.90
2019-04-26T12:03:40.514Z,99.90
2019-04-26T12:06:13.547Z,99.90
2019-04-26T12:08:55.383Z,99.30
2019-04-26T12:11:31.312Z,99.80
2019-04-26T12:13:55.429Z,99.90
2019-04-26T12:16:24.207Z,99.50
2019-04-26T12:18:52.645Z,99.40
2019-04-26T12:21:21.101Z,99.40
2019-04-26T12:23:51.417Z,99.50
2019-04-26T12:26:21.640Z,99.10
2019-04-26T12:28:49.881Z,99.80
2019-04-26T12:31:18.356Z,99.40
2019-04-26T12:33:46.802Z,98.90
2019-04-26T12:36:15.506Z,99.20
2019-04-26T12:38:43.950Z,99.90
2019-04-26T12:41:12.414Z,99.30
2019-04-26T12:43:41.189Z,98.70
2019-04-26T12:46:31.848Z,98.70
2019-04-26T12:48:59.794Z,99.00
2019-04-26T12:51:28.265Z,98.20
2019-04-26T12:53:56.699Z,98.60
2019-04-26T12:56:26.539Z,98.00
2019-04-26T12:58:55.342Z,98.10
2019-04-26T13:01:23.784Z,97.80
2019-04-26T13:04:05.590Z,98.30
2019-04-26T13:06:37.001Z,98.60
2019-04-26T13:09:21.701Z,97.50
2019-04-26T13:12:08.379Z,98.00
2019-04-26T13:14:55.022Z,98.30
2019-04-26T13:17:37.496Z,98.30
2019-04-26T13:20:07.426Z,98.00
2019-04-26T13:22:45.333Z,98.40
2019-04-26T13:25:15.252Z,98.70
2019-04-26T13:27:37.261Z,98.90
2019-04-26T13:30:10.531Z,98.90
2019-04-26T13:32:37.158Z,98.70
2019-04-26T13:35:07.286Z,98.90
2019-04-26T13:37:36.976Z,98.80
2019-04-26T13:40:07.521Z,98.90
2019-04-26T13:42:35.976Z,99.10
2019-04-26T13:45:14.032Z,99.20
2019-04-26T13:47:55.951Z,99.30
2019-04-26T13:50:26.570Z,99.80
2019-04-26T13:52:56.262Z,99.90
2019-04-26T13:55:29.053Z,99.90
2019-04-26T13:57:56.072Z,99.90
2019-04-26T14:00:26.450Z,99.90
2019-04-26T14:02:54.974Z,99.90
2019-04-26T14:05:23.461Z,99.90
2019-04-26T14:07:51.942Z,99.90
2019-04-26T14:10:20.555Z,99.90
2019-04-26T14:12:49.885Z,99.90
2019-04-26T14:15:19.329Z,99.90
2019-04-26T14:17:47.841Z,99.90
2019-04-26T14:20:19.219Z,99.90
2019-04-26T14:22:48.109Z,99.90
2019-04-26T14:25:18.217Z,99.90
2019-04-26T14:27:50.047Z,99.90
2019-04-26T14:30:18.655Z,99.90
2019-04-26T14:32:47.119Z,99.90
2019-04-26T14:35:17.397Z,99.90
2019-04-26T14:37:50.004Z,99.90
2019-04-26T14:40:17.541Z,99.90
2019-04-26T14:42:48.435Z,99.90
2019-04-26T14:45:23.390Z,99.90
2019-04-26T14:47:47.837Z,99.90
2019-04-26T14:50:16.535Z,99.90
2019-04-26T14:52:44.997Z,99.90
2019-04-26T14:55:16.590Z,99.90
2019-04-26T14:57:46.851Z,99.90
2019-04-26T15:00:16.908Z,99.90
2019-04-26T15:02:47.399Z,99.90
2019-04-26T15:05:22.124Z,99.90
2019-04-26T15:07:51.977Z,99.90
2019-04-26T15:10:22.633Z,99.90
2019-04-26T15:12:58.331Z,99.90
2019-04-26T15:15:21.250Z,99.90
2019-04-26T15:17:53.633Z,99.90
2019-04-26T15:20:20.932Z,99.90
2019-04-26T15:22:50.714Z,99.90
2019-04-26T15:25:19.118Z,99.90
2019-04-26T15:27:47.587Z,99.90
2019-04-26T15:30:16.157Z,99.90
2019-04-26T15:32:44.638Z,99.90
2019-04-26T15:35:17.418Z,99.90
2019-04-26T15:37:47.216Z,99.90
2019-04-26T15:40:27.398Z,99.90
2019-04-26T15:43:14.223Z,99.90
2019-04-26T15:45:55.550Z,99.90
2019-04-26T15:48:37.658Z,99.90
2019-04-26T15:51:06.098Z,99.90
2019-04-26T15:53:34.562Z,99.90
2019-04-26T15:56:03.021Z,99.90
2019-04-26T15:58:31.489Z,99.90
2019-04-26T16:01:00.384Z,99.90
2019-04-26T16:03:28.898Z,99.90
2019-04-26T16:05:59.149Z,99.90
2019-04-26T16:08:27.563Z,99.90
2019-04-26T16:10:56.060Z,99.90
2019-04-26T16:13:24.524Z,99.90
2019-04-26T16:15:53.034Z,99.90
2019-04-26T16:18:22.393Z,99.90
2019-04-26T16:20:51.014Z,99.90
2019-04-26T16:23:19.450Z,99.90
2019-04-26T16:25:47.888Z,99.90
2019-04-26T16:28:34.233Z,99.90
2019-04-26T16:31:13.957Z,99.90
2019-04-26T16:33:44.848Z,99.90
2019-04-26T16:36:13.353Z,99.90
2019-04-26T16:38:41.790Z,99.90
2019-04-26T16:41:10.262Z,99.90
2019-04-26T16:43:44.751Z,99.90
2019-04-26T16:46:14.615Z,99.90
2019-04-26T16:48:39.484Z,99.90
2019-04-26T16:51:08.788Z,99.90
2019-04-26T16:53:52.252Z,99.90
2019-04-26T16:56:07.694Z,99.90
2019-04-26T16:58:38.174Z,99.90
2019-04-26T17:01:10.096Z,99.90
2019-04-26T17:03:38.301Z,99.90
2019-04-26T17:06:11.522Z,99.90
2019-04-26T17:08:42.810Z,99.90
2019-04-26T17:11:07.774Z,99.90
2019-04-26T17:13:48.400Z,99.90
2019-04-26T17:16:06.485Z,99.90
2019-04-26T17:18:34.922Z,99.90
2019-04-26T17:21:03.454Z,99.90
2019-04-26T17:23:39.638Z,99.90
2019-04-26T17:26:29.260Z,99.90
2019-04-26T17:28:58.165Z,99.90
2019-04-26T17:31:27.492Z,99.90
2019-04-26T17:33:55.954Z,99.90
2019-04-26T17:36:24.478Z,99.90
2019-04-26T17:38:52.985Z,99.90
2019-04-26T17:41:21.450Z,99.90
2019-04-26T17:43:53.341Z,99.90
2019-04-26T17:46:21.521Z,99.90
2019-04-26T17:48:50.858Z,99.90
2019-04-26T17:51:22.947Z,99.90
2019-04-26T17:53:58.811Z,99.90
2019-04-26T17:56:21.490Z,99.90
2019-04-26T17:58:54.268Z,99.90
2019-04-26T18:01:39.825Z,99.90
2019-04-26T18:03:55.480Z,99.90
2019-04-26T18:06:29.616Z,99.90
2019-04-26T18:08:52.767Z,99.90
2019-04-26T18:11:24.698Z,99.90
2019-04-26T18:13:52.342Z,99.90
2019-04-26T18:16:22.433Z,99.90
2019-04-26T18:19:03.254Z,99.90
2019-04-26T18:21:56.124Z,99.90
2019-04-26T18:24:20.141Z,99.90
2019-04-26T18:26:52.290Z,99.90
2019-04-26T18:29:18.911Z,99.90
2019-04-26T18:31:47.442Z,99.90
2019-04-26T18:34:15.914Z,99.90
2019-04-26T18:36:44.453Z,99.90
2019-04-26T18:39:13.073Z,99.90
2019-04-26T18:41:41.578Z,99.90
2019-04-26T18:44:10.014Z,99.90
2019-04-26T18:46:44.822Z,99.90
2019-04-26T18:49:11.440Z,99.90
2019-04-26T18:51:43.359Z,99.90
2019-04-26T18:54:14.571Z,99.90
2019-04-26T18:56:44.239Z,99.90
2019-04-26T18:59:15.341Z,99.90
2019-04-26T19:01:43.253Z,99.90
2019-04-26T19:04:14.892Z,99.90
2019-04-26T19:06:42.494Z,99.90
2019-04-26T19:09:12.229Z,99.90
2019-04-26T19:11:42.075Z,99.90
2019-04-26T19:14:15.072Z,99.90
2019-04-26T19:16:46.380Z,99.90
2019-04-26T19:19:22.753Z,99.90
2019-04-26T19:21:54.637Z,99.90
2019-04-26T19:24:23.337Z,99.90
2019-04-26T19:26:51.789Z,99.90
2019-04-26T19:29:29.153Z,99.90
2019-04-26T19:31:51.954Z,99.90
2019-04-26T19:34:21.909Z,99.90
2019-04-26T19:36:52.367Z,99.90
2019-04-26T19:39:31.667Z,99.90
2019-04-26T19:41:57.325Z,99.90
2019-04-26T19:44:24.060Z,99.90
2019-04-26T19:47:03.306Z,99.90
2019-04-26T19:49:33.358Z,99.90
2019-04-26T19:52:03.858Z,99.90
2019-04-26T19:54:51.222Z,99.90
2019-04-26T19:57:23.788Z,99.90
2019-04-26T19:59:52.696Z,99.90
2019-04-26T20:02:21.293Z,99.90
2019-04-26T20:04:51.254Z,99.90
2019-04-26T20:07:19.971Z,99.90
2019-04-26T20:09:48.483Z,99.90
2019-04-26T20:12:16.954Z,99.90
2019-04-26T20:14:50.992Z,99.90
2019-04-26T20:17:19.910Z,99.90
2019-04-26T20:19:47.784Z,99.90
2019-04-26T20:22:16.255Z,99.90
2019-04-26T20:24:48.698Z,99.90
2019-04-26T20:27:20.378Z,99.90
2019-04-26T20:29:47.280Z,99.90
2019-04-26T20:32:24.019Z,99.90
2019-04-26T20:34:54.175Z,99.90
2019-04-26T20:37:25.587Z,99.90
2019-04-26T20:40:15.420Z,99.90
2019-04-26T20:42:23.082Z,99.90
2019-04-26T20:44:53.812Z,99.90
2019-04-26T20:47:22.483Z,99.90
2019-04-26T20:50:00.847Z,99.90
2019-04-26T20:52:24.814Z,99.90
2019-04-26T20:54:54.111Z,99.90
2019-04-26T20:57:21.897Z,99.90
2019-04-26T20:59:52.099Z,99.90
2019-04-26T21:02:24.561Z,99.90
2019-04-26T21:04:51.490Z,99.90
2019-04-26T21:07:21.788Z,99.90
2019-04-26T21:09:50.545Z,99.90
2019-04-26T21:12:19.180Z,99.90
2019-04-26T21:14:47.682Z,99.90
2019-04-26T21:17:19.404Z,99.90
2019-04-26T21:19:49.876Z,99.90
2019-04-26T21:22:18.335Z,99.90
2019-04-26T21:24:50.816Z,99.90
2019-04-26T21:27:30.154Z,99.90
2019-04-26T21:30:10.139Z,99.90
2019-04-26T21:32:56.058Z,99.90
2019-04-26T21:35:25.079Z,99.90
2019-04-26T21:37:56.521Z,99.90
2019-04-26T21:40:26.834Z,99.90
2019-04-26T21:42:59.297Z,99.90
2019-04-26T21:45:28.376Z,99.90
2019-04-26T21:47:56.581Z,99.90
2019-04-26T21:50:25.111Z,99.90
2019-04-26T21:52:54.162Z,99.90
2019-04-26T21:55:26.384Z,99.90
2019-04-26T21:57:53.816Z,99.90
2019-04-26T22:00:26.935Z,99.90
2019-04-26T22:02:55.368Z,99.90
2019-04-26T22:05:24.126Z,99.90
2019-04-26T22:07:53.492Z,99.90
2019-04-26T22:10:35.492Z,99.90
2019-04-26T22:13:06.467Z,99.90
2019-04-26T22:15:37.578Z,99.90
2019-04-26T22:18:24.307Z,99.90
2019-04-26T22:20:54.571Z,99.90
2019-04-26T22:23:41.042Z,99.90
2019-04-26T22:26:09.662Z,99.90
2019-04-26T22:28:38.125Z,99.90
2019-04-26T22:31:08.525Z,99.90
2019-04-26T22:33:36.761Z,99.90
2019-04-26T22:36:05.512Z,99.90
2019-04-26T22:38:34.142Z,99.90
2019-04-26T22:41:03.131Z,99.90
2019-04-26T22:43:53.901Z,99.90
2019-04-26T22:46:44.398Z,99.90
2019-04-26T22:49:05.768Z,99.90
2019-04-26T22:51:33.638Z,99.90
2019-04-26T22:54:06.085Z,99.90
2019-04-26T22:56:36.994Z,99.90
2019-04-26T22:59:07.747Z,99.90
2019-04-26T23:01:34.853Z,99.90
2019-04-26T23:04:04.373Z,99.90
2019-04-26T23:06:33.776Z,99.90
2019-04-26T23:09:02.300Z,99.90
2019-04-26T23:11:30.817Z,99.90
2019-04-26T23:14:11.597Z,99.90
2019-04-26T23:16:44.695Z,99.90
2019-04-26T23:19:28.558Z,99.90
2019-04-26T23:21:58.599Z,99.90
2019-04-26T23:24:27.288Z,99.90
2019-04-26T23:26:56.231Z,99.90
2019-04-26T23:29:24.680Z,99.90
2019-04-26T23:31:55.368Z,99.90
2019-04-26T23:34:25.344Z,99.90
2019-04-26T23:36:53.951Z,99.90
2019-04-26T23:39:22.814Z,99.90
2019-04-26T23:41:54.014Z,99.90
2019-04-26T23:44:23.172Z,99.90
2019-04-26T23:46:56.615Z,99.90
2019-04-26T23:49:25.052Z,99.90
2019-04-26T23:51:53.347Z,99.90
2019-04-26T23:54:23.740Z,99.90
2019-04-26T23:56:55.700Z,99.90
2019-04-26T23:59:24.664Z,99.90
